createdAt,value
2022-12-08T00:02:25.782Z,3.50
2022-12-08T00:05:10.761Z,3.30
2022-12-08T00:07:56.695Z,3.20
2022-12-08T00:10:47.948Z,3.40
2022-12-08T00:13:09.684Z,3.17
2022-12-08T00:15:36.002Z,3.43
2022-12-08T00:18:02.487Z,3.43
2022-12-08T00:20:28.645Z,3.50
2022-12-08T00:22:55.086Z,3.03
2022-12-08T00:25:21.169Z,3.47
2022-12-08T00:27:47.573Z,3.30
2022-12-08T00:30:13.803Z,3.20
2022-12-08T00:32:40.250Z,3.57
2022-12-08T00:35:06.818Z,2.90
2022-12-08T00:37:33.413Z,2.27
2022-12-08T00:39:59.516Z,2.70
2022-12-08T00:42:26.143Z,2.87
2022-12-08T00:44:52.377Z,2.80
2022-12-08T00:47:23.383Z,2.50
2022-12-08T00:49:51.315Z,2.80
2022-12-08T00:52:17.665Z,2.67
2022-12-08T00:54:43.805Z,2.60
2022-12-08T00:57:10.816Z,2.70
2022-12-08T00:59:36.956Z,2.60
2022-12-08T01:02:03.436Z,2.47
2022-12-08T01:04:29.750Z,2.50
2022-12-08T01:06:56.122Z,2.43
2022-12-08T01:09:22.424Z,2.30
2022-12-08T01:11:48.856Z,2.30
2022-12-08T01:14:15.113Z,2.57
2022-12-08T01:16:41.938Z,2.60
2022-12-08T01:19:11.049Z,2.40
2022-12-08T01:21:37.459Z,2.40
2022-12-08T01:24:03.786Z,2.70
2022-12-08T01:26:30.161Z,2.57
2022-12-08T01:28:56.321Z,2.60
2022-12-08T01:31:23.024Z,2.70
2022-12-08T01:33:49.675Z,2.80
2022-12-08T01:36:22.328Z,2.63
2022-12-08T01:38:48.729Z,3.00
2022-12-08T01:41:17.158Z,3.00
2022-12-08T01:43:55.053Z,2.90
2022-12-08T01:46:21.665Z,2.77
2022-12-08T01:48:49.631Z,3.03
2022-12-08T01:51:16.004Z,3.40
2022-12-08T01:53:42.917Z,2.87
2022-12-08T01:56:14.940Z,3.63
2022-12-08T01:58:47.158Z,2.97
2022-12-08T02:01:13.610Z,3.33
2022-12-08T02:03:50.253Z,3.10
2022-12-08T02:06:18.863Z,2.77
2022-12-08T02:08:46.979Z,2.70
2022-12-08T02:11:13.291Z,2.73
2022-12-08T02:13:42.490Z,2.73
2022-12-08T02:16:36.391Z,2.57
2022-12-08T02:19:32.771Z,3.00
2022-12-08T02:22:25.142Z,2.80
2022-12-08T02:24:57.517Z,3.07
2022-12-08T02:27:54.072Z,2.80
2022-12-08T02:30:29.677Z,3.23
2022-12-08T02:33:16.926Z,3.27
2022-12-08T02:36:04.069Z,3.03
2022-12-08T02:38:44.834Z,3.07
2022-12-08T02:41:27.232Z,2.77
2022-12-08T02:44:36.674Z,3.20
2022-12-08T02:47:11.856Z,3.10
2022-12-08T02:49:38.269Z,2.87
2022-12-08T02:52:24.560Z,3.30
2022-12-08T02:54:58.614Z,3.17
2022-12-08T02:57:28.073Z,3.20
2022-12-08T03:00:13.277Z,3.33
2022-12-08T03:03:13.544Z,2.97
2022-12-08T03:06:10.580Z,3.03
2022-12-08T03:08:53.877Z,2.93
2022-12-08T03:11:40.245Z,3.90
2022-12-08T03:14:10.286Z,3.40
2022-12-08T03:16:42.042Z,3.70
2022-12-08T03:19:11.533Z,3.07
2022-12-08T03:21:39.965Z,3.27
2022-12-08T03:24:09.372Z,3.00
2022-12-08T03:26:56.937Z,3.37
2022-12-08T03:29:23.917Z,2.73
2022-12-08T03:31:55.573Z,2.80
2022-12-08T03:34:26.345Z,3.00
2022-12-08T03:36:52.632Z,3.03
2022-12-08T03:39:19.327Z,3.20
2022-12-08T03:41:46.552Z,3.10
2022-12-08T03:44:15.715Z,3.47
2022-12-08T03:46:42.056Z,3.43
2022-12-08T03:49:08.517Z,2.93
2022-12-08T03:51:34.761Z,3.43
2022-12-08T03:54:01.426Z,3.50
2022-12-08T03:56:32.340Z,3.50
2022-12-08T03:58:58.842Z,2.90
2022-12-08T04:01:25.561Z,3.60
2022-12-08T04:03:52.702Z,4.07
2022-12-08T04:06:19.688Z,4.77
2022-12-08T04:08:46.869Z,3.70
2022-12-08T04:11:13.286Z,4.73
2022-12-08T04:13:41.595Z,4.80
2022-12-08T04:16:13.987Z,4.87
2022-12-08T04:18:40.493Z,4.60
2022-12-08T04:21:07.023Z,4.50
2022-12-08T04:23:33.538Z,4.80
2022-12-08T04:25:59.664Z,5.10
2022-12-08T04:28:28.662Z,4.07
2022-12-08T04:30:55.093Z,4.33
2022-12-08T04:33:21.710Z,4.37
2022-12-08T04:35:47.761Z,4.03
2022-12-08T04:38:14.120Z,4.03
2022-12-08T04:40:40.504Z,4.87
2022-12-08T04:43:07.104Z,4.57
2022-12-08T04:45:33.578Z,4.87
2022-12-08T04:48:01.050Z,4.63
2022-12-08T04:50:27.903Z,4.27
2022-12-08T04:52:54.322Z,5.77
2022-12-08T04:55:20.439Z,5.20
2022-12-08T04:57:46.863Z,5.53
2022-12-08T05:00:13.579Z,5.43
2022-12-08T05:02:40.142Z,5.27
2022-12-08T05:05:06.847Z,5.40
2022-12-08T05:07:33.219Z,5.27
2022-12-08T05:09:59.290Z,5.30
2022-12-08T05:12:25.728Z,5.27
2022-12-08T05:14:51.847Z,5.47
2022-12-08T05:17:18.440Z,4.97
2022-12-08T05:19:44.682Z,4.93
2022-12-08T05:22:11.010Z,5.27
2022-12-08T05:24:41.302Z,4.07
2022-12-08T05:27:10.771Z,4.50
2022-12-08T05:29:36.930Z,4.63
2022-12-08T05:32:03.505Z,5.47
2022-12-08T05:34:29.667Z,7.70
2022-12-08T05:36:56.142Z,7.13
2022-12-08T05:39:22.488Z,5.57
2022-12-08T05:41:49.027Z,5.10
2022-12-08T05:44:15.351Z,5.13
2022-12-08T05:46:41.953Z,5.53
2022-12-08T05:49:08.246Z,6.80
2022-12-08T05:51:34.712Z,6.17
2022-12-08T05:54:00.952Z,5.73
2022-12-08T05:56:27.364Z,5.53
2022-12-08T05:58:53.560Z,5.20
2022-12-08T06:01:26.761Z,6.50
2022-12-08T06:03:54.153Z,5.10
2022-12-08T06:06:21.259Z,5.43
2022-12-08T06:08:48.384Z,5.23
2022-12-08T06:11:30.158Z,4.93
2022-12-08T06:13:57.229Z,4.73
2022-12-08T06:16:25.474Z,5.50
2022-12-08T06:18:51.875Z,5.80
2022-12-08T06:21:19.010Z,5.07
2022-12-08T06:23:50.830Z,5.17
2022-12-08T06:26:17.781Z,4.77
2022-12-08T06:28:44.284Z,65.83
2022-12-08T06:31:15.369Z,5.73
2022-12-08T06:33:42.286Z,18.80
2022-12-08T06:36:11.396Z,7.70
2022-12-08T06:38:41.821Z,8.47
2022-12-08T06:41:11.306Z,6.93
2022-12-08T06:43:38.149Z,8.20
2022-12-08T06:46:07.175Z,6.63
2022-12-08T06:48:33.635Z,7.60
2022-12-08T06:51:14.685Z,5.30
2022-12-08T06:53:41.792Z,5.70
2022-12-08T06:56:08.671Z,6.07
2022-12-08T06:58:35.138Z,6.37
2022-12-08T07:01:11.874Z,6.10
2022-12-08T07:03:39.294Z,5.67
2022-12-08T07:06:06.269Z,21.80
2022-12-08T07:08:33.619Z,30.43
2022-12-08T07:11:05.989Z,32.03
2022-12-08T07:13:32.073Z,16.53
2022-12-08T07:15:58.656Z,14.40
2022-12-08T07:18:24.748Z,11.10
2022-12-08T07:20:51.162Z,8.33
2022-12-08T07:23:17.257Z,7.87
2022-12-08T07:25:43.688Z,7.87
2022-12-08T07:28:11.492Z,7.43
2022-12-08T07:30:39.782Z,7.77
2022-12-08T07:33:06.096Z,8.73
2022-12-08T07:35:34.846Z,8.40
2022-12-08T07:38:03.191Z,7.57
2022-12-08T07:40:29.711Z,9.47
2022-12-08T07:42:56.117Z,11.17
2022-12-08T07:45:25.764Z,8.60
2022-12-08T07:47:57.343Z,8.40
2022-12-08T07:50:26.949Z,7.53
2022-12-08T07:52:53.229Z,10.47
2022-12-08T07:55:19.658Z,11.07
2022-12-08T07:57:45.890Z,7.60
2022-12-08T08:00:13.339Z,7.70
2022-12-08T08:02:41.541Z,9.57
2022-12-08T08:05:09.039Z,8.17
2022-12-08T08:07:36.521Z,9.17
2022-12-08T08:10:03.674Z,8.77
2022-12-08T08:12:31.735Z,9.03
2022-12-08T08:15:09.504Z,9.77
2022-12-08T08:17:37.124Z,8.17
2022-12-08T08:20:07.918Z,7.13
2022-12-08T08:22:35.426Z,6.40
2022-12-08T08:25:02.298Z,7.07
2022-12-08T08:27:28.440Z,6.90
2022-12-08T08:34:05.557Z,7.23
2022-12-08T08:36:32.248Z,6.37
2022-12-08T08:38:58.534Z,5.53
2022-12-08T08:41:24.981Z,6.70
2022-12-08T08:43:51.084Z,4.90
2022-12-08T08:46:17.490Z,5.40
2022-12-08T08:48:44.106Z,5.43
2022-12-08T08:51:12.445Z,5.70
2022-12-08T08:53:38.831Z,6.20
2022-12-08T08:56:13.265Z,6.80
2022-12-08T08:58:40.397Z,7.03
2022-12-08T09:01:07.540Z,6.47
2022-12-08T09:03:34.179Z,5.70
2022-12-08T09:06:00.963Z,5.40
2022-12-08T09:08:27.265Z,5.60
2022-12-08T09:10:54.135Z,6.30
2022-12-08T09:13:20.287Z,6.37
2022-12-08T09:15:46.712Z,6.07
2022-12-08T09:18:12.903Z,6.47
2022-12-08T09:20:39.511Z,5.90
2022-12-08T09:23:05.686Z,5.60
2022-12-08T09:25:32.143Z,6.63
2022-12-08T09:27:58.423Z,6.10
2022-12-08T09:30:24.864Z,6.03
2022-12-08T09:32:52.753Z,7.17
2022-12-08T09:35:19.573Z,6.10
2022-12-08T09:37:45.802Z,6.47
2022-12-08T09:40:18.092Z,6.90
2022-12-08T09:42:49.567Z,7.90
2022-12-08T09:45:17.140Z,8.10
2022-12-08T09:47:54.784Z,7.40
2022-12-08T09:50:36.162Z,7.63
2022-12-08T09:53:11.888Z,7.57
2022-12-08T09:55:41.505Z,7.87
2022-12-08T09:58:46.890Z,7.43
2022-12-08T10:01:14.295Z,7.07
2022-12-08T10:03:41.602Z,7.57
2022-12-08T10:06:22.898Z,7.47
2022-12-08T10:09:01.061Z,7.47
2022-12-08T10:11:58.082Z,8.00
2022-12-08T10:14:41.039Z,7.40
2022-12-08T10:17:23.226Z,7.50
2022-12-08T10:19:54.675Z,6.30
2022-12-08T10:22:23.913Z,6.60
2022-12-08T10:25:17.516Z,6.90
2022-12-08T10:27:47.962Z,6.73
2022-12-08T10:30:16.956Z,7.60
2022-12-08T10:32:49.312Z,7.83
2022-12-08T10:35:18.656Z,7.93
2022-12-08T10:38:01.834Z,7.90
2022-12-08T10:40:36.889Z,7.23
2022-12-08T10:43:15.081Z,6.77
2022-12-08T10:45:44.365Z,7.40
2022-12-08T10:48:32.763Z,7.33
2022-12-08T10:50:59.320Z,7.80
2022-12-08T10:53:28.844Z,7.13
2022-12-08T10:56:00.960Z,8.10
2022-12-08T10:58:36.679Z,7.70
2022-12-08T11:01:20.436Z,7.53
2022-12-08T11:03:53.397Z,7.37
2022-12-08T11:06:28.663Z,7.77
2022-12-08T11:08:58.199Z,8.33
2022-12-08T11:11:46.032Z,9.63
2022-12-08T11:14:19.134Z,8.53
2022-12-08T11:16:45.647Z,8.10
2022-12-08T11:19:17.185Z,7.90
2022-12-08T11:21:43.785Z,7.00
2022-12-08T11:24:21.984Z,7.07
2022-12-08T11:26:52.372Z,6.93
2022-12-08T11:29:19.852Z,7.00
2022-12-08T11:31:51.303Z,7.50
2022-12-08T11:34:44.324Z,8.40
2022-12-08T11:37:19.026Z,6.23
2022-12-08T11:39:50.749Z,6.17
2022-12-08T11:42:22.766Z,6.80
2022-12-08T11:44:56.542Z,5.80
2022-12-08T11:47:35.697Z,6.73
2022-12-08T11:50:27.677Z,6.07
2022-12-08T11:52:56.275Z,6.13
2022-12-08T11:55:25.555Z,5.97
2022-12-08T11:57:54.134Z,6.37
2022-12-08T12:00:20.632Z,5.83
2022-12-08T12:03:00.272Z,6.23
2022-12-08T12:06:18.342Z,6.17
2022-12-08T12:08:56.792Z,6.73
2022-12-08T12:12:01.574Z,6.13
2022-12-08T12:14:43.792Z,7.27
2022-12-08T12:17:55.433Z,8.33
2022-12-08T12:20:24.670Z,8.57
2022-12-08T12:23:07.519Z,7.77
2022-12-08T12:25:35.947Z,9.30
2022-12-08T12:28:06.100Z,8.70
2022-12-08T12:30:56.033Z,8.37
2022-12-08T12:33:23.164Z,8.30
2022-12-08T12:35:49.679Z,7.60
2022-12-08T12:38:43.923Z,7.63
2022-12-08T12:41:13.015Z,9.03
2022-12-08T12:43:40.023Z,7.43
2022-12-08T12:46:24.201Z,7.67
2022-12-08T12:48:51.705Z,6.73
2022-12-08T12:51:39.061Z,7.97
2022-12-08T12:54:32.482Z,7.00
2022-12-08T12:57:04.835Z,5.97
2022-12-08T12:59:51.576Z,7.40
2022-12-08T13:02:27.244Z,7.43
2022-12-08T13:04:56.815Z,8.57
2022-12-08T13:07:26.585Z,8.47
2022-12-08T13:10:02.000Z,9.27
2022-12-08T13:12:28.654Z,7.97
2022-12-08T13:15:03.596Z,7.97
2022-12-08T13:17:32.575Z,8.70
2022-12-08T13:20:03.193Z,7.90
2022-12-08T13:23:03.047Z,7.30
2022-12-08T13:25:39.772Z,8.03
2022-12-08T13:28:14.958Z,9.07
2022-12-08T13:30:49.411Z,10.37
2022-12-08T13:33:24.387Z,10.70
2022-12-08T13:36:04.570Z,9.93
2022-12-08T13:38:35.350Z,9.87
2022-12-08T13:41:08.577Z,8.97
2022-12-08T13:43:55.609Z,8.77
2022-12-08T13:47:31.680Z,8.93
2022-12-08T13:58:34.842Z,10.13
2022-12-08T14:01:04.702Z,9.93
2022-12-08T14:04:04.336Z,9.67
2022-12-08T14:06:34.942Z,9.10
2022-12-08T14:09:10.777Z,10.10
2022-12-08T14:11:40.562Z,11.00
2022-12-08T14:14:14.493Z,10.33
2022-12-08T14:16:55.540Z,9.80
2022-12-08T14:19:30.376Z,9.93
2022-12-08T14:22:16.722Z,10.90
2022-12-08T14:24:48.979Z,10.17
2022-12-08T14:27:19.110Z,10.27
2022-12-08T14:29:57.579Z,10.03
2022-12-08T14:32:28.763Z,9.13
2022-12-08T14:35:06.132Z,7.60
2022-12-08T14:37:38.851Z,8.27
2022-12-08T14:40:22.889Z,8.57
2022-12-08T14:42:53.001Z,7.80
2022-12-08T14:45:20.316Z,7.27
2022-12-08T14:47:48.025Z,8.13
2022-12-08T14:50:33.165Z,8.43
2022-12-08T14:52:59.512Z,8.30
2022-12-08T14:55:28.174Z,7.77
2022-12-08T14:57:54.346Z,7.83
2022-12-08T15:00:21.504Z,8.23
2022-12-08T15:02:47.679Z,9.83
2022-12-08T15:05:18.212Z,9.67
2022-12-08T15:07:48.822Z,9.30
2022-12-08T15:10:16.152Z,10.97
2022-12-08T15:13:19.617Z,12.70
2022-12-08T15:15:54.850Z,13.57
2022-12-08T15:18:38.927Z,12.20
2022-12-08T15:21:08.745Z,16.20
2022-12-08T15:23:46.858Z,13.27
2022-12-08T15:26:25.696Z,9.47
2022-12-08T15:28:52.912Z,10.30
2022-12-08T15:31:20.246Z,10.47
2022-12-08T15:33:46.950Z,10.60
2022-12-08T15:36:14.341Z,9.70
2022-12-08T15:38:42.312Z,10.00
2022-12-08T15:41:14.652Z,8.57
2022-12-08T15:43:42.217Z,11.23
2022-12-08T15:46:08.734Z,11.97
2022-12-08T15:48:37.227Z,14.10
2022-12-08T15:51:04.031Z,16.83
2022-12-08T15:53:30.146Z,13.90
2022-12-08T15:58:54.138Z,14.77
2022-12-08T16:01:22.296Z,18.47
2022-12-08T16:09:26.854Z,25.43
2022-12-08T16:12:11.833Z,22.97
2022-12-08T16:17:26.639Z,13.43
2022-12-08T16:19:53.820Z,14.47
2022-12-08T16:23:03.204Z,12.93
2022-12-08T16:25:19.169Z,12.23
2022-12-08T16:28:03.139Z,12.60
2022-12-08T16:30:32.392Z,16.43
2022-12-08T16:32:59.173Z,12.47
2022-12-08T16:35:25.612Z,9.90
2022-12-08T16:37:52.375Z,10.00
2022-12-08T16:40:18.687Z,8.80
2022-12-08T16:42:47.870Z,9.73
2022-12-08T16:45:22.159Z,9.30
2022-12-08T16:47:58.530Z,9.57
2022-12-08T16:50:34.683Z,9.30
2022-12-08T16:53:04.453Z,9.27
2022-12-08T16:55:31.595Z,9.90
2022-12-08T16:57:58.565Z,9.00
2022-12-08T17:00:27.811Z,9.63
2022-12-08T17:02:55.228Z,10.27
2022-12-08T17:05:23.587Z,12.00
2022-12-08T17:07:52.204Z,10.63
2022-12-08T17:10:22.437Z,10.53
2022-12-08T17:12:53.318Z,11.13
2022-12-08T17:15:22.087Z,11.40
2022-12-08T17:17:48.898Z,10.30
2022-12-08T17:20:20.740Z,9.13
2022-12-08T17:22:50.060Z,10.83
2022-12-08T17:25:16.556Z,16.63
2022-12-08T17:27:43.262Z,10.83
2022-12-08T17:30:15.182Z,9.27
2022-12-08T17:32:45.172Z,10.30
2022-12-08T17:35:13.599Z,10.30
2022-12-08T17:37:44.334Z,25.43
2022-12-08T17:40:11.185Z,10.73
2022-12-08T17:42:38.556Z,10.90
2022-12-08T17:45:06.784Z,10.40
2022-12-08T17:47:34.021Z,9.80
2022-12-08T17:50:03.364Z,10.23
2022-12-08T17:52:30.727Z,9.20
2022-12-08T17:54:57.251Z,9.70
2022-12-08T17:57:24.104Z,8.40
2022-12-08T17:59:51.725Z,9.83
2022-12-08T18:02:19.093Z,12.00
2022-12-08T18:04:48.033Z,12.13
2022-12-08T18:07:14.935Z,13.10
2022-12-08T18:09:41.738Z,11.10
2022-12-08T18:12:08.572Z,12.43
2022-12-08T18:14:35.402Z,13.00
2022-12-08T18:17:02.157Z,11.00
2022-12-08T18:19:31.699Z,11.83
2022-12-08T18:21:59.601Z,10.47
2022-12-08T18:24:26.436Z,10.73
2022-12-08T18:26:54.630Z,9.57
2022-12-08T18:29:22.287Z,9.67
2022-12-08T18:31:49.651Z,9.40
2022-12-08T18:34:18.876Z,10.00
2022-12-08T18:36:46.393Z,10.50
2022-12-08T18:39:21.911Z,9.60
2022-12-08T18:41:49.430Z,10.07
2022-12-08T18:44:15.784Z,11.27
2022-12-08T18:46:42.867Z,10.63
2022-12-08T18:49:18.293Z,12.70
2022-12-08T18:51:45.841Z,12.77
2022-12-08T18:54:13.110Z,11.80
2022-12-08T18:56:39.939Z,11.27
2022-12-08T18:59:10.017Z,10.93
2022-12-08T19:01:38.754Z,11.10
2022-12-08T19:06:55.043Z,10.73
2022-12-08T19:09:22.204Z,10.77
2022-12-08T19:11:49.447Z,10.50
2022-12-08T19:14:16.103Z,10.57
2022-12-08T19:16:42.803Z,11.13
2022-12-08T19:19:09.909Z,10.23
2022-12-08T19:21:42.867Z,11.00
2022-12-08T19:24:12.367Z,11.70
2022-12-08T19:26:38.772Z,13.60
2022-12-08T19:29:05.037Z,11.77
2022-12-08T19:31:31.597Z,16.77
2022-12-08T19:33:57.946Z,16.27
2022-12-08T19:36:25.395Z,11.80
2022-12-08T19:39:10.633Z,12.93
2022-12-08T19:41:56.177Z,13.83
2022-12-08T19:44:25.883Z,12.43
2022-12-08T19:46:52.414Z,13.37
2022-12-08T19:49:18.829Z,13.00
2022-12-08T19:51:45.350Z,12.40
2022-12-08T19:54:11.647Z,12.47
2022-12-08T19:56:38.265Z,10.97
2022-12-08T19:59:04.473Z,11.57
2022-12-08T20:01:31.230Z,12.83
2022-12-08T20:03:57.685Z,14.37
2022-12-08T20:06:26.006Z,13.30
2022-12-08T20:08:53.689Z,13.90
2022-12-08T20:11:20.693Z,14.17
2022-12-08T20:13:47.271Z,12.73
2022-12-08T20:16:15.119Z,12.63
2022-12-08T20:18:43.571Z,13.13
2022-12-08T20:21:11.651Z,11.93
2022-12-08T20:23:37.983Z,12.23
2022-12-08T20:26:11.647Z,12.90
2022-12-08T20:28:38.058Z,12.63
2022-12-08T20:31:05.096Z,12.17
2022-12-08T20:33:31.482Z,13.10
2022-12-08T20:36:00.111Z,12.97
2022-12-08T20:38:28.309Z,12.47
2022-12-08T20:40:59.189Z,12.97
2022-12-08T20:43:26.156Z,14.40
2022-12-08T20:45:52.815Z,13.23
2022-12-08T20:48:19.625Z,14.27
2022-12-08T20:50:50.535Z,14.10
2022-12-08T20:53:17.096Z,13.97
2022-12-08T20:55:43.744Z,14.60
2022-12-08T20:58:10.244Z,13.13
2022-12-08T21:00:37.309Z,14.77
2022-12-08T21:03:03.875Z,14.40
2022-12-08T21:05:31.232Z,15.10
2022-12-08T21:07:58.135Z,15.80
2022-12-08T21:10:24.931Z,14.70
2022-12-08T21:12:51.282Z,15.80
2022-12-08T21:15:18.592Z,15.80
2022-12-08T21:17:45.040Z,16.60
2022-12-08T21:20:12.038Z,17.07
2022-12-08T21:22:39.341Z,16.10
2022-12-08T21:25:07.590Z,15.60
2022-12-08T21:27:34.011Z,16.83
2022-12-08T21:30:00.778Z,18.30
2022-12-08T21:32:30.337Z,20.17
2022-12-08T21:34:57.969Z,27.00
2022-12-08T21:37:24.637Z,45.80
2022-12-08T21:39:51.208Z,28.97
2022-12-08T21:42:36.497Z,19.87
2022-12-08T21:45:04.160Z,15.13
2022-12-08T21:47:30.733Z,15.27
2022-12-08T21:49:57.735Z,14.17
2022-12-08T21:52:26.648Z,15.20
2022-12-08T21:54:53.321Z,15.07
2022-12-08T21:57:19.972Z,17.23
2022-12-08T21:59:46.835Z,17.10
2022-12-08T22:02:18.313Z,17.50
2022-12-08T22:04:50.030Z,16.63
2022-12-08T22:07:16.721Z,16.20
2022-12-08T22:09:43.633Z,14.40
2022-12-08T22:12:13.561Z,12.87
2022-12-08T22:14:40.144Z,14.13
2022-12-08T22:17:07.333Z,12.83
2022-12-08T22:19:34.801Z,13.30
2022-12-08T22:22:01.503Z,13.40
2022-12-08T22:24:31.294Z,12.63
2022-12-08T22:26:57.632Z,13.00
2022-12-08T22:29:24.176Z,13.17
2022-12-08T22:31:50.716Z,12.97
2022-12-08T22:34:17.444Z,12.07
2022-12-08T22:36:44.537Z,12.03
2022-12-08T22:39:11.865Z,12.60
2022-12-08T22:41:38.335Z,11.37
2022-12-08T22:44:06.508Z,12.03
2022-12-08T22:46:33.370Z,13.10
2022-12-08T22:49:00.539Z,11.37
2022-12-08T22:51:26.821Z,12.47
2022-12-08T22:53:53.291Z,12.30
2022-12-08T22:56:19.973Z,12.60
2022-12-08T22:58:47.302Z,12.47
2022-12-08T23:01:26.122Z,11.30
2022-12-08T23:03:52.974Z,10.67
2022-12-08T23:06:19.878Z,11.70
2022-12-08T23:08:46.610Z,11.33
2022-12-08T23:11:13.588Z,9.70
2022-12-08T23:13:41.750Z,10.17
2022-12-08T23:16:09.636Z,9.47
2022-12-08T23:18:39.866Z,10.33
2022-12-08T23:21:09.136Z,10.57
2022-12-08T23:23:35.611Z,11.80
2022-12-08T23:26:02.273Z,11.60
2022-12-08T23:28:28.886Z,11.60
2022-12-08T23:30:57.870Z,12.93
2022-12-08T23:33:24.704Z,15.20
2022-12-08T23:35:57.526Z,14.63
2022-12-08T23:38:24.857Z,18.67
2022-12-08T23:40:51.837Z,15.50
2022-12-08T23:43:21.212Z,12.63
2022-12-08T23:45:47.911Z,12.07
2022-12-08T23:48:15.044Z,11.77
2022-12-08T23:50:43.891Z,9.70
2022-12-08T23:53:10.504Z,10.00
2022-12-08T23:55:37.133Z,10.63
2022-12-08T23:58:03.726Z,11.07
